AirNav   Everest Fuels
 
 1347 users online  

6JY8 Cablevision Bethpage Heliport
Bethpage, New York, USA

GOING TO BETHPAGE?


FAA INFORMATION EFFECTIVE 02 DECEMBER 2021

Location

FAA Identifier: 6JY8
Lat/Long: 40-45-34.8300N 073-29-47.4100W
40-45.580500N 073-29.790167W
40.7596750,-73.4965028
(estimated)
Elevation: 130.1 ft. / 39.7 m (surveyed)
Variation: 13W (2010)
Time zone: UTC -5 (UTC -4 during Daylight Saving Time)
Zip code: 11714

Heliport Operations

Heliport use: Private use. Permission required prior to landing
Activation date: 05/2005
Control tower: no
ARTCC: NEW YORK CENTER
FSS: NEW YORK FLIGHT SERVICE STATION
NOTAMs facility: FDC (NOTAM-D service not available)
Attendance: UNATNDD
Wind indicator: lighted
Segmented circle: no
Lights: FOR PERIMETER LGTS, RY H1 & H2, CALL 516-694-3023.

Heliport Communications

WX ASOS at FRG (4 nm SE): PHONE 631-752-8129
WX ASOS at JFK (15 nm SW): 128.725 (718-656-0956)
WX ASOS at LGA (17 nm W): PHONE 718-672-6317
WX ASOS at ISP (18 nm E): 120.725 (631-471-0131)

Nearby radio navigation aids

VOR radial/distance  VOR name  Freq  Var
DPKr270/9.0DEER PARK VOR/DME117.7012W
JFKr071/14.6KENNEDY VOR/DME115.9012W
LGAr107/17.0LA GUARDIA VOR/DME113.1012W
CRIr075/20.1CANARSIE VOR/DME112.3011W
TEBr113/26.2TETERBORO VOR/DME108.4011W
BDRr227/29.4BRIDGEPORT VOR/DME108.8012W
CMKr185/31.5CARMEL VOR/DME116.6012W
CCCr265/33.3CALVERTON VOR/DME117.2013W

 
NDB name  Hdg/Dist  Freq  Var  ID
FRIKK226/1.240714WFR ..-. .-.
LOKKS292/14.036614WIS .. ...

Heliport Services

Runway Information

Helipad H1

Dimensions: 80 x 80 ft. / 24 x 24 m
Surface: concrete
Runway edge lights: PERI
Latitude: 40-45.580500N
Longitude: 073-29.790167W
Elevation: 130.0 ft.
Traffic pattern: leftleft

Helipad H2

Dimensions: 80 x 80 ft. / 24 x 24 m
Surface: concrete
Runway edge lights: PERI
Traffic pattern: leftleft

Heliport Ownership and Management from official FAA records

Ownership: Privately-owned
Owner: CABLEVISION SYSTEMS CORP.
111 STEWART AVE
BETHPAGE, NY 11714
Phone 516-803-2682
Manager: DANA TRIOLO
1111 STEWART AVE.
BETHPAGE, NY 11714
Phone 516-803-2682
CELL 516-353-9546

Additional Remarks

FOR CD CTC NEW YORK APCH AT 516-683-2962.

Instrument Procedures

There are no published instrument procedures at 6JY8.

Some nearby airports with instrument procedures:

KFRG - Republic Airport (4 nm SE)
KJFK - John F Kennedy International Airport (15 nm SW)
KLGA - LaGuardia Airport (17 nm W)
KISP - Long Island Mac Arthur Airport (18 nm E)
KHPN - Westchester County Airport (21 nm NW)
 
Loc | Ops | Rwys | IFR | FBO | Links
Com | Nav | Svcs | Stats | Notes
Area around 6JY8 (Cablevision Bethpage Heliport)
 
Road maps at: MapQuest Bing Google
 
Aerial photo
No photo
 
Sectional chart

 
Airport distance calculator
Flying to Cablevision Bethpage Heliport? Find the distance to fly.

From to 6JY8

Sunrise and sunset
Times for 06-Dec-2021
 Local
(UTC-5)
 Zulu
(UTC)
Morning civil twilight06:3411:34
Sunrise07:0512:05
Sunset16:2521:25
Evening civil twilight16:5621:56

Current date and time
Zulu (UTC)  06-Dec-2021 22:11:46
Local (UTC-5)  06-Dec-2021 17:11:46
 
METAR
KFRG 
4nm SE 
062153Z AUTO 21018G25KT 9SM OVC008 14/12 A2965 RMK AO2 PK WND 20031/2108 SLP042 T01440122
KJFK 
14nm SW 
062151Z 20021G29KT 2 1/2SM BKN006 BKN160 OVC210 13/12 A2965 RMK AO2 PK WND 19035/2109 SFC VIS 7 SLP041 T01280122
KLGA 
18nm W 
062151Z 19012KT 10SM FEW018 BKN160 OVC210 14/11 A2963 RMK AO2 PK WND 17026/2057 SLP033 T01390106
KISP 
18nm E 
062156Z 20014G25KT 6SM BR BKN008 BKN015 BKN140 14/13 A2965 RMK AO2 PK WND 20026/2126 SLP040 T01390128
TAF
KJFK 
14nm SW 
062024Z 0620/0724 19022G32KT 2SM BR OVC003 TEMPO 0622/0624 4SM BR SCT003 BKN008 FM070000 23020G26KT 5SM -SHRA FEW004 SCT015 BKN025 FM070300 29022G35KT 6SM -SHRA BR SCT025 BKN070 FM070500 29016G24KT P6SM SCT040 SCT250 FM071400 29014KT P6SM FEW040 SCT250 FM071700 27012KT P6SM BKN040 FM072200 25004KT P6SM SCT040 BKN150
KLGA 
18nm W 
062024Z 0620/0724 18019G25KT P6SM FEW008 BKN015 BKN100 TEMPO 0620/0622 BKN008 FM070000 23019G22KT 5SM -SHRA SCT015 BKN025 FM070300 29022G32KT 6SM -SHRA BR SCT025 BKN070 FM070500 31016G24KT P6SM SCT040 SCT250 FM071400 29014KT P6SM FEW040 SCT250 FM071700 27012KT P6SM BKN040 FM072200 25004KT P6SM SCT040 BKN150
KISP 
18nm E 
061931Z 0620/0718 19015G21KT 5SM BR BKN005 BKN015 TEMPO 0621/0623 6SM BR BKN008 FM062300 19019G25KT 6SM BR BKN008 BKN025 FM070100 24019G26KT 5SM -SHRA SCT015 BKN025 FM070400 29020G30KT 6SM -SHRA BR SCT025 BKN070 FM070600 29014G20KT P6SM SCT040 SCT250 FM070900 29012KT P6SM FEW250 FM071500 27014KT P6SM SCT040 SCT150
NOTAMs
Click for the latest NOTAMs
NOTAMs are issued by the DoD/FAA and will open in a separate window not controlled by AirNav.

 

 
 

Would you like to see your business listed on this page?

 If your business provides an interesting product or service to pilots, flight crews, aircraft, or users of the Cablevision Bethpage Heliport, you should consider listing it here.  To start the listing process, click on the button below
 
Add a business
 

Other Pages about Cablevision Bethpage Heliport

Update a link
 
Copyright © AirNav, LLC. All rights reserved. Privacy Policy  Contact